Klix Airport EDCI

Flugplatz Daten

Name: Klix Airport

Ident: EDCI

Lat: 51,27388763

Long: 14,50638866

Platzhöhe: 486 ft

IataCode:

City: Bautzen

Homepage: http://www.aeroteam.de/index.php?whl=13000000&lg=de

Metar

2022/02/01 12:00
CYXP 011200Z 25004KT 170V260 15SM SKC M33/M36 A3014 RMK SNW CVR/MEDCIUM PACK SLP213

Taf

Gewünschte Webcam nicht vorhanden? Dann fügen Sie eine hinzu. Sie wird dann so schnell wie möglich freigeschaltet
Url: Title: